sensor_id;sensor_type;location;lat;lon;timestamp;P1;durP1;ratioP1;P2;durP2;ratioP2
56297;SDS011;42208;6.376;-10.782;2022-11-27T00:01:33;60.80;;;37.67;;
56297;SDS011;42208;6.376;-10.782;2022-11-27T00:04:04;58.47;;;37.53;;
56297;SDS011;42208;6.376;-10.782;2022-11-27T00:06:33;55.35;;;35.85;;
56297;SDS011;42208;6.376;-10.782;2022-11-27T00:09:04;61.25;;;37.40;;
56297;SDS011;42208;6.376;-10.782;2022-11-27T00:11:34;50.53;;;35.63;;
56297;SDS011;42208;6.376;-10.782;2022-11-27T00:14:02;59.60;;;37.90;;
56297;SDS011;42208;6.376;-10.782;2022-11-27T00:16:31;64.93;;;39.17;;
56297;SDS011;42208;6.376;-10.782;2022-11-27T00:18:59;65.57;;;39.83;;
56297;SDS011;42208;6.376;-10.782;2022-11-27T00:21:28;60.55;;;37.95;;
56297;SDS011;42208;6.376;-10.782;2022-11-27T00:23:59;54.30;;;36.35;;
56297;SDS011;42208;6.376;-10.782;2022-11-27T00:26:31;60.08;;;35.95;;
56297;SDS011;42208;6.376;-10.782;2022-11-27T00:29:04;54.85;;;33.90;;
56297;SDS011;42208;6.376;-10.782;2022-11-27T00:31:33;53.88;;;34.22;;
56297;SDS011;42208;6.376;-10.782;2022-11-27T00:34:04;46.35;;;34.47;;
56297;SDS011;42208;6.376;-10.782;2022-11-27T00:36:34;65.88;;;34.17;;
56297;SDS011;42208;6.376;-10.782;2022-11-27T00:39:02;53.33;;;32.17;;
56297;SDS011;42208;6.376;-10.782;2022-11-27T00:41:31;54.58;;;30.92;;
56297;SDS011;42208;6.376;-10.782;2022-11-27T00:44:00;50.75;;;28.70;;
56297;SDS011;42208;6.376;-10.782;2022-11-27T00:46:29;43.67;;;28.45;;
56297;SDS011;42208;6.376;-10.782;2022-11-27T00:49:00;42.08;;;26.65;;
56297;SDS011;42208;6.376;-10.782;2022-11-27T00:51:30;49.45;;;29.08;;
56297;SDS011;42208;6.376;-10.782;2022-11-27T00:53:58;44.38;;;26.02;;
56297;SDS011;42208;6.376;-10.782;2022-11-27T00:56:28;46.35;;;26.88;;
56297;SDS011;42208;6.376;-10.782;2022-11-27T00:58:59;44.97;;;25.95;;
56297;SDS011;42208;6.376;-10.782;2022-11-27T01:01:29;38.88;;;25.48;;
56297;SDS011;42208;6.376;-10.782;2022-11-27T01:04:00;51.13;;;25.55;;
56297;SDS011;42208;6.376;-10.782;2022-11-27T01:06:29;43.97;;;25.17;;
56297;SDS011;42208;6.376;-10.782;2022-11-27T01:08:58;41.95;;;24.27;;
56297;SDS011;42208;6.376;-10.782;2022-11-27T01:11:27;46.28;;;25.50;;
56297;SDS011;42208;6.376;-10.782;2022-11-27T01:14:01;36.45;;;23.52;;
56297;SDS011;42208;6.376;-10.782;2022-11-27T01:16:32;38.50;;;25.33;;
56297;SDS011;42208;6.376;-10.782;2022-11-27T01:19:08;39.05;;;24.25;;
56297;SDS011;42208;6.376;-10.782;2022-11-27T01:21:38;44.60;;;23.40;;
56297;SDS011;42208;6.376;-10.782;2022-11-27T01:24:06;34.80;;;22.45;;
56297;SDS011;42208;6.376;-10.782;2022-11-27T01:26:37;45.40;;;25.55;;
56297;SDS011;42208;6.376;-10.782;2022-11-27T01:29:05;40.67;;;24.77;;
56297;SDS011;42208;6.376;-10.782;2022-11-27T01:31:34;44.20;;;23.50;;
56297;SDS011;42208;6.376;-10.782;2022-11-27T01:34:04;38.38;;;23.92;;
56297;SDS011;42208;6.376;-10.782;2022-11-27T01:39:03;43.67;;;24.83;;
56297;SDS011;42208;6.376;-10.782;2022-11-27T01:41:32;54.60;;;25.33;;
56297;SDS011;42208;6.376;-10.782;2022-11-27T01:52:33;57.30;;;30.45;;
56297;SDS011;42208;6.376;-10.782;2022-11-27T01:55:09;55.85;;;32.42;;
56297;SDS011;42208;6.376;-10.782;2022-11-27T01:57:58;55.97;;;31.02;;
56297;SDS011;42208;6.376;-10.782;2022-11-27T02:00:31;54.97;;;29.55;;
56297;SDS011;42208;6.376;-10.782;2022-11-27T02:02:59;50.25;;;28.98;;
56297;SDS011;42208;6.376;-10.782;2022-11-27T02:05:28;54.90;;;29.98;;
56297;SDS011;42208;6.376;-10.782;2022-11-27T02:07:57;51.47;;;28.88;;
56297;SDS011;42208;6.376;-10.782;2022-11-27T02:10:35;49.78;;;28.30;;
56297;SDS011;42208;6.376;-10.782;2022-11-27T02:13:20;48.63;;;27.50;;
56297;SDS011;42208;6.376;-10.782;2022-11-27T02:16:20;49.55;;;27.52;;
56297;SDS011;42208;6.376;-10.782;2022-11-27T02:21:36;51.55;;;26.58;;
56297;SDS011;42208;6.376;-10.782;2022-11-27T02:26:55;40.60;;;26.20;;
56297;SDS011;42208;6.376;-10.782;2022-11-27T02:29:30;51.72;;;25.88;;
56297;SDS011;42208;6.376;-10.782;2022-11-27T02:40:00;37.75;;;24.35;;
56297;SDS011;42208;6.376;-10.782;2022-11-27T02:42:39;45.70;;;25.08;;
56297;SDS011;42208;6.376;-10.782;2022-11-27T02:45:22;47.47;;;25.00;;
56297;SDS011;42208;6.376;-10.782;2022-11-27T02:47:56;39.90;;;23.25;;
56297;SDS011;42208;6.376;-10.782;2022-11-27T02:50:26;44.95;;;23.67;;
56297;SDS011;42208;6.376;-10.782;2022-11-27T02:55:29;44.80;;;23.23;;
56297;SDS011;42208;6.376;-10.782;2022-11-27T03:00:30;43.65;;;23.30;;
56297;SDS011;42208;6.376;-10.782;2022-11-27T03:03:02;44.53;;;22.88;;
56297;SDS011;42208;6.376;-10.782;2022-11-27T03:05:36;45.90;;;22.77;;
56297;SDS011;42208;6.376;-10.782;2022-11-27T03:08:17;37.47;;;23.52;;
56297;SDS011;42208;6.376;-10.782;2022-11-27T03:11:05;52.35;;;28.00;;
56297;SDS011;42208;6.376;-10.782;2022-11-27T03:13:37;50.97;;;26.80;;
56297;SDS011;42208;6.376;-10.782;2022-11-27T03:16:14;52.97;;;27.10;;
56297;SDS011;42208;6.376;-10.782;2022-11-27T03:19:25;48.40;;;26.00;;
56297;SDS011;42208;6.376;-10.782;2022-11-27T03:22:08;58.05;;;29.55;;
56297;SDS011;42208;6.376;-10.782;2022-11-27T03:24:38;52.75;;;29.50;;
56297;SDS011;42208;6.376;-10.782;2022-11-27T03:27:06;49.45;;;27.85;;
56297;SDS011;42208;6.376;-10.782;2022-11-27T03:32:11;46.92;;;25.80;;
56297;SDS011;42208;6.376;-10.782;2022-11-27T03:34:40;58.58;;;28.13;;
56297;SDS011;42208;6.376;-10.782;2022-11-27T03:37:09;46.13;;;25.75;;
56297;SDS011;42208;6.376;-10.782;2022-11-27T03:39:37;39.35;;;26.42;;
56297;SDS011;42208;6.376;-10.782;2022-11-27T03:47:34;47.20;;;24.63;;
56297;SDS011;42208;6.376;-10.782;2022-11-27T03:50:45;43.75;;;23.52;;
56297;SDS011;42208;6.376;-10.782;2022-11-27T03:58:55;47.33;;;25.52;;
56297;SDS011;42208;6.376;-10.782;2022-11-27T04:01:29;48.50;;;24.15;;
56297;SDS011;42208;6.376;-10.782;2022-11-27T04:03:58;41.60;;;23.40;;
56297;SDS011;42208;6.376;-10.782;2022-11-27T04:06:27;39.55;;;23.63;;
56297;SDS011;42208;6.376;-10.782;2022-11-27T04:08:55;44.85;;;23.48;;
56297;SDS011;42208;6.376;-10.782;2022-11-27T04:11:24;40.47;;;23.85;;
56297;SDS011;42208;6.376;-10.782;2022-11-27T04:13:52;48.65;;;24.92;;
56297;SDS011;42208;6.376;-10.782;2022-11-27T04:16:20;41.95;;;24.42;;
56297;SDS011;42208;6.376;-10.782;2022-11-27T04:18:49;42.90;;;25.83;;
56297;SDS011;42208;6.376;-10.782;2022-11-27T04:21:17;45.05;;;25.92;;
56297;SDS011;42208;6.376;-10.782;2022-11-27T04:23:46;41.10;;;26.98;;
56297;SDS011;42208;6.376;-10.782;2022-11-27T04:26:14;49.60;;;25.60;;
56297;SDS011;42208;6.376;-10.782;2022-11-27T04:28:43;43.47;;;22.50;;
56297;SDS011;42208;6.376;-10.782;2022-11-27T04:31:11;47.47;;;25.90;;
56297;SDS011;42208;6.376;-10.782;2022-11-27T04:33:40;45.15;;;25.15;;
56297;SDS011;42208;6.376;-10.782;2022-11-27T04:36:08;50.15;;;24.98;;
56297;SDS011;42208;6.376;-10.782;2022-11-27T04:38:36;39.63;;;23.20;;
56297;SDS011;42208;6.376;-10.782;2022-11-27T04:41:05;47.10;;;25.00;;
56297;SDS011;42208;6.376;-10.782;2022-11-27T04:43:33;42.15;;;25.92;;
56297;SDS011;42208;6.376;-10.782;2022-11-27T04:46:01;48.92;;;25.30;;
56297;SDS011;42208;6.376;-10.782;2022-11-27T04:48:29;43.80;;;26.00;;
56297;SDS011;42208;6.376;-10.782;2022-11-27T04:50:58;40.47;;;24.75;;
56297;SDS011;42208;6.376;-10.782;2022-11-27T04:53:26;43.10;;;23.38;;
56297;SDS011;42208;6.376;-10.782;2022-11-27T04:55:54;47.10;;;24.80;;
56297;SDS011;42208;6.376;-10.782;2022-11-27T04:58:22;40.33;;;23.83;;
56297;SDS011;42208;6.376;-10.782;2022-11-27T05:00:50;38.70;;;24.30;;
56297;SDS011;42208;6.376;-10.782;2022-11-27T05:03:19;41.00;;;23.83;;
56297;SDS011;42208;6.376;-10.782;2022-11-27T05:06:05;36.53;;;23.58;;
56297;SDS011;42208;6.376;-10.782;2022-11-27T05:08:33;36.05;;;23.42;;
56297;SDS011;42208;6.376;-10.782;2022-11-27T05:11:05;47.17;;;24.02;;
56297;SDS011;42208;6.376;-10.782;2022-11-27T05:13:38;40.75;;;23.17;;
56297;SDS011;42208;6.376;-10.782;2022-11-27T05:16:08;47.80;;;24.48;;
56297;SDS011;42208;6.376;-10.782;2022-11-27T05:18:37;37.92;;;24.50;;
56297;SDS011;42208;6.376;-10.782;2022-11-27T05:21:06;39.05;;;22.73;;
56297;SDS011;42208;6.376;-10.782;2022-11-27T05:23:34;40.67;;;23.90;;
56297;SDS011;42208;6.376;-10.782;2022-11-27T05:26:03;37.08;;;22.63;;
56297;SDS011;42208;6.376;-10.782;2022-11-27T05:28:31;41.55;;;23.40;;
56297;SDS011;42208;6.376;-10.782;2022-11-27T05:31:00;44.47;;;24.17;;
56297;SDS011;42208;6.376;-10.782;2022-11-27T05:33:28;44.42;;;23.70;;
56297;SDS011;42208;6.376;-10.782;2022-11-27T05:35:56;37.63;;;21.63;;
56297;SDS011;42208;6.376;-10.782;2022-11-27T05:38:24;42.25;;;23.50;;
56297;SDS011;42208;6.376;-10.782;2022-11-27T05:40:53;41.67;;;21.25;;
56297;SDS011;42208;6.376;-10.782;2022-11-27T05:43:21;43.70;;;22.90;;
56297;SDS011;42208;6.376;-10.782;2022-11-27T05:45:49;39.85;;;22.27;;
56297;SDS011;42208;6.376;-10.782;2022-11-27T05:48:17;34.72;;;19.65;;
56297;SDS011;42208;6.376;-10.782;2022-11-27T05:50:46;38.85;;;21.33;;
56297;SDS011;42208;6.376;-10.782;2022-11-27T05:53:14;32.97;;;19.50;;
56297;SDS011;42208;6.376;-10.782;2022-11-27T05:55:42;47.72;;;21.42;;
56297;SDS011;42208;6.376;-10.782;2022-11-27T05:58:10;43.42;;;20.60;;
56297;SDS011;42208;6.376;-10.782;2022-11-27T06:00:39;50.67;;;19.98;;
56297;SDS011;42208;6.376;-10.782;2022-11-27T06:03:07;42.40;;;20.92;;
56297;SDS011;42208;6.376;-10.782;2022-11-27T06:05:39;33.92;;;20.33;;
56297;SDS011;42208;6.376;-10.782;2022-11-27T06:08:07;39.22;;;20.52;;
56297;SDS011;42208;6.376;-10.782;2022-11-27T06:10:37;44.33;;;22.17;;
56297;SDS011;42208;6.376;-10.782;2022-11-27T06:13:05;41.05;;;21.33;;
56297;SDS011;42208;6.376;-10.782;2022-11-27T06:15:35;43.53;;;20.58;;
56297;SDS011;42208;6.376;-10.782;2022-11-27T06:18:04;36.15;;;21.70;;
56297;SDS011;42208;6.376;-10.782;2022-11-27T06:20:33;45.15;;;22.98;;
56297;SDS011;42208;6.376;-10.782;2022-11-27T06:23:08;41.75;;;21.70;;
56297;SDS011;42208;6.376;-10.782;2022-11-27T06:25:36;41.30;;;20.42;;
56297;SDS011;42208;6.376;-10.782;2022-11-27T06:28:04;39.20;;;20.70;;
56297;SDS011;42208;6.376;-10.782;2022-11-27T06:30:33;40.75;;;20.73;;
56297;SDS011;42208;6.376;-10.782;2022-11-27T06:33:01;41.28;;;21.02;;
56297;SDS011;42208;6.376;-10.782;2022-11-27T06:35:29;44.10;;;21.75;;
56297;SDS011;42208;6.376;-10.782;2022-11-27T06:37:57;41.97;;;22.73;;
56297;SDS011;42208;6.376;-10.782;2022-11-27T06:40:26;41.17;;;23.48;;
56297;SDS011;42208;6.376;-10.782;2022-11-27T06:42:54;41.78;;;21.65;;
56297;SDS011;42208;6.376;-10.782;2022-11-27T06:45:23;44.65;;;24.48;;
56297;SDS011;42208;6.376;-10.782;2022-11-27T06:47:51;42.88;;;24.55;;
56297;SDS011;42208;6.376;-10.782;2022-11-27T06:50:19;48.53;;;26.70;;
56297;SDS011;42208;6.376;-10.782;2022-11-27T06:52:47;43.05;;;24.50;;
56297;SDS011;42208;6.376;-10.782;2022-11-27T06:55:16;48.55;;;24.63;;
56297;SDS011;42208;6.376;-10.782;2022-11-27T06:57:44;41.60;;;26.25;;
56297;SDS011;42208;6.376;-10.782;2022-11-27T07:00:12;43.83;;;25.02;;
56297;SDS011;42208;6.376;-10.782;2022-11-27T07:02:41;44.70;;;25.33;;
56297;SDS011;42208;6.376;-10.782;2022-11-27T07:05:09;44.20;;;23.45;;
56297;SDS011;42208;6.376;-10.782;2022-11-27T07:07:37;46.15;;;23.77;;
56297;SDS011;42208;6.376;-10.782;2022-11-27T07:12:38;45.28;;;26.13;;
56297;SDS011;42208;6.376;-10.782;2022-11-27T07:15:06;40.55;;;25.80;;
56297;SDS011;42208;6.376;-10.782;2022-11-27T07:17:35;45.25;;;23.88;;
56297;SDS011;42208;6.376;-10.782;2022-11-27T07:20:03;50.22;;;24.23;;
56297;SDS011;42208;6.376;-10.782;2022-11-27T07:22:32;38.65;;;22.83;;
56297;SDS011;42208;6.376;-10.782;2022-11-27T07:25:01;35.33;;;21.10;;
56297;SDS011;42208;6.376;-10.782;2022-11-27T07:27:29;30.55;;;19.77;;
56297;SDS011;42208;6.376;-10.782;2022-11-27T07:29:57;27.88;;;18.58;;
56297;SDS011;42208;6.376;-10.782;2022-11-27T07:32:26;33.17;;;16.83;;
56297;SDS011;42208;6.376;-10.782;2022-11-27T07:34:54;33.03;;;17.98;;
56297;SDS011;42208;6.376;-10.782;2022-11-27T07:37:22;30.27;;;17.08;;
56297;SDS011;42208;6.376;-10.782;2022-11-27T07:39:51;32.40;;;17.10;;
56297;SDS011;42208;6.376;-10.782;2022-11-27T07:42:29;30.85;;;16.15;;
56297;SDS011;42208;6.376;-10.782;2022-11-27T07:45:06;36.67;;;16.88;;
56297;SDS011;42208;6.376;-10.782;2022-11-27T07:47:35;32.70;;;17.77;;
56297;SDS011;42208;6.376;-10.782;2022-11-27T07:50:04;29.67;;;16.75;;
56297;SDS011;42208;6.376;-10.782;2022-11-27T07:52:34;29.10;;;16.63;;
56297;SDS011;42208;6.376;-10.782;2022-11-27T07:55:08;27.05;;;17.23;;
56297;SDS011;42208;6.376;-10.782;2022-11-27T07:57:36;28.30;;;16.25;;
56297;SDS011;42208;6.376;-10.782;2022-11-27T08:00:05;25.23;;;16.08;;
56297;SDS011;42208;6.376;-10.782;2022-11-27T08:02:33;33.05;;;18.00;;
56297;SDS011;42208;6.376;-10.782;2022-11-27T08:05:02;25.90;;;16.10;;
56297;SDS011;42208;6.376;-10.782;2022-11-27T08:07:38;26.00;;;15.00;;
56297;SDS011;42208;6.376;-10.782;2022-11-27T08:10:07;28.02;;;16.58;;
56297;SDS011;42208;6.376;-10.782;2022-11-27T08:12:35;28.50;;;15.48;;
56297;SDS011;42208;6.376;-10.782;2022-11-27T08:15:04;25.45;;;15.23;;
56297;SDS011;42208;6.376;-10.782;2022-11-27T08:17:33;24.83;;;15.95;;
56297;SDS011;42208;6.376;-10.782;2022-11-27T08:20:01;26.50;;;16.05;;
56297;SDS011;42208;6.376;-10.782;2022-11-27T08:22:30;32.88;;;16.23;;
56297;SDS011;42208;6.376;-10.782;2022-11-27T08:24:58;30.50;;;20.17;;
56297;SDS011;42208;6.376;-10.782;2022-11-27T08:27:29;36.45;;;20.23;;
56297;SDS011;42208;6.376;-10.782;2022-11-27T08:29:58;30.33;;;18.65;;
56297;SDS011;42208;6.376;-10.782;2022-11-27T08:32:27;35.05;;;18.58;;
56297;SDS011;42208;6.376;-10.782;2022-11-27T08:34:56;31.90;;;17.88;;
56297;SDS011;42208;6.376;-10.782;2022-11-27T08:37:24;28.80;;;18.45;;
56297;SDS011;42208;6.376;-10.782;2022-11-27T08:39:52;32.88;;;18.83;;
56297;SDS011;42208;6.376;-10.782;2022-11-27T08:42:21;28.58;;;17.90;;
56297;SDS011;42208;6.376;-10.782;2022-11-27T08:44:50;33.40;;;20.50;;
56297;SDS011;42208;6.376;-10.782;2022-11-27T08:47:18;35.35;;;19.13;;
56297;SDS011;42208;6.376;-10.782;2022-11-27T08:49:47;36.08;;;19.08;;
56297;SDS011;42208;6.376;-10.782;2022-11-27T08:52:15;27.35;;;17.38;;
56297;SDS011;42208;6.376;-10.782;2022-11-27T08:54:44;29.83;;;16.10;;
56297;SDS011;42208;6.376;-10.782;2022-11-27T08:57:13;27.30;;;15.35;;
56297;SDS011;42208;6.376;-10.782;2022-11-27T08:59:42;25.98;;;15.20;;
56297;SDS011;42208;6.376;-10.782;2022-11-27T09:02:11;27.88;;;15.63;;
56297;SDS011;42208;6.376;-10.782;2022-11-27T09:04:40;24.90;;;13.73;;
56297;SDS011;42208;6.376;-10.782;2022-11-27T09:07:08;30.00;;;14.57;;
56297;SDS011;42208;6.376;-10.782;2022-11-27T09:09:37;27.30;;;13.77;;
56297;SDS011;42208;6.376;-10.782;2022-11-27T09:12:05;25.27;;;15.27;;
56297;SDS011;42208;6.376;-10.782;2022-11-27T09:14:34;28.02;;;15.15;;
56297;SDS011;42208;6.376;-10.782;2022-11-27T09:17:03;24.58;;;14.55;;
56297;SDS011;42208;6.376;-10.782;2022-11-27T09:19:31;24.20;;;14.35;;
56297;SDS011;42208;6.376;-10.782;2022-11-27T09:22:00;22.05;;;14.25;;
56297;SDS011;42208;6.376;-10.782;2022-11-27T09:24:28;31.45;;;13.20;;
56297;SDS011;42208;6.376;-10.782;2022-11-27T09:26:57;23.02;;;13.00;;
56297;SDS011;42208;6.376;-10.782;2022-11-27T09:29:25;26.98;;;14.10;;
56297;SDS011;42208;6.376;-10.782;2022-11-27T09:31:53;30.52;;;13.63;;
56297;SDS011;42208;6.376;-10.782;2022-11-27T09:34:22;26.15;;;13.95;;
56297;SDS011;42208;6.376;-10.782;2022-11-27T09:36:50;32.70;;;13.90;;
56297;SDS011;42208;6.376;-10.782;2022-11-27T09:39:18;33.15;;;14.80;;
56297;SDS011;42208;6.376;-10.782;2022-11-27T09:41:56;28.77;;;14.85;;
56297;SDS011;42208;6.376;-10.782;2022-11-27T09:45:03;28.05;;;14.68;;
56297;SDS011;42208;6.376;-10.782;2022-11-27T09:50:11;29.17;;;14.63;;
56297;SDS011;42208;6.376;-10.782;2022-11-27T09:58:05;26.40;;;13.60;;
56297;SDS011;42208;6.376;-10.782;2022-11-27T10:00:52;24.77;;;13.30;;
56297;SDS011;42208;6.376;-10.782;2022-11-27T10:03:24;38.63;;;15.10;;
56297;SDS011;42208;6.376;-10.782;2022-11-27T10:06:02;22.88;;;11.18;;
56297;SDS011;42208;6.376;-10.782;2022-11-27T10:28:22;27.67;;;9.95;;
56297;SDS011;42208;6.376;-10.782;2022-11-27T10:31:12;23.17;;;9.70;;
56297;SDS011;42208;6.376;-10.782;2022-11-27T10:34:04;19.65;;;8.77;;
56297;SDS011;42208;6.376;-10.782;2022-11-27T10:36:47;20.08;;;9.20;;
56297;SDS011;42208;6.376;-10.782;2022-11-27T10:42:14;23.42;;;8.30;;
56297;SDS011;42208;6.376;-10.782;2022-11-27T10:45:06;21.33;;;9.13;;
56297;SDS011;42208;6.376;-10.782;2022-11-27T10:47:48;22.20;;;9.15;;
56297;SDS011;42208;6.376;-10.782;2022-11-27T10:50:17;24.38;;;9.38;;
56297;SDS011;42208;6.376;-10.782;2022-11-27T10:52:56;24.70;;;8.80;;
56297;SDS011;42208;6.376;-10.782;2022-11-27T11:01:10;23.02;;;9.18;;
56297;SDS011;42208;6.376;-10.782;2022-11-27T11:03:40;23.38;;;9.30;;
56297;SDS011;42208;6.376;-10.782;2022-11-27T11:06:29;24.42;;;10.25;;
56297;SDS011;42208;6.376;-10.782;2022-11-27T11:09:06;24.23;;;9.95;;
56297;SDS011;42208;6.376;-10.782;2022-11-27T11:16:48;18.23;;;10.00;;
56297;SDS011;42208;6.376;-10.782;2022-11-27T11:22:02;26.30;;;11.02;;
56297;SDS011;42208;6.376;-10.782;2022-11-27T11:24:44;28.20;;;10.65;;
56297;SDS011;42208;6.376;-10.782;2022-11-27T11:27:22;26.90;;;9.55;;
56297;SDS011;42208;6.376;-10.782;2022-11-27T11:29:56;24.02;;;9.55;;
56297;SDS011;42208;6.376;-10.782;2022-11-27T11:32:28;23.98;;;9.45;;
56297;SDS011;42208;6.376;-10.782;2022-11-27T11:35:22;22.30;;;8.43;;
56297;SDS011;42208;6.376;-10.782;2022-11-27T11:37:54;26.90;;;9.73;;
56297;SDS011;42208;6.376;-10.782;2022-11-27T11:40:25;21.98;;;10.50;;
56297;SDS011;42208;6.376;-10.782;2022-11-27T11:43:05;23.17;;;9.50;;
56297;SDS011;42208;6.376;-10.782;2022-11-27T11:46:18;27.08;;;10.18;;
56297;SDS011;42208;6.376;-10.782;2022-11-27T11:48:56;21.53;;;8.80;;
56297;SDS011;42208;6.376;-10.782;2022-11-27T11:51:31;21.58;;;8.82;;
56297;SDS011;42208;6.376;-10.782;2022-11-27T11:57:02;21.15;;;9.10;;
56297;SDS011;42208;6.376;-10.782;2022-11-27T11:59:41;24.80;;;10.00;;
56297;SDS011;42208;6.376;-10.782;2022-11-27T12:02:37;30.67;;;11.27;;
56297;SDS011;42208;6.376;-10.782;2022-11-27T12:08:49;21.98;;;9.05;;
56297;SDS011;42208;6.376;-10.782;2022-11-27T12:14:13;23.95;;;8.93;;
56297;SDS011;42208;6.376;-10.782;2022-11-27T12:26:18;21.85;;;8.63;;
56297;SDS011;42208;6.376;-10.782;2022-11-27T12:31:32;26.02;;;8.88;;
56297;SDS011;42208;6.376;-10.782;2022-11-27T12:37:00;22.50;;;9.45;;
56297;SDS011;42208;6.376;-10.782;2022-11-27T12:45:36;22.10;;;9.85;;
56297;SDS011;42208;6.376;-10.782;2022-11-27T12:48:14;24.70;;;9.82;;
56297;SDS011;42208;6.376;-10.782;2022-11-27T12:56:20;22.73;;;9.60;;
56297;SDS011;42208;6.376;-10.782;2022-11-27T12:59:10;23.42;;;9.05;;
56297;SDS011;42208;6.376;-10.782;2022-11-27T13:04:47;22.52;;;9.40;;
56297;SDS011;42208;6.376;-10.782;2022-11-27T13:13:05;35.08;;;10.52;;
56297;SDS011;42208;6.376;-10.782;2022-11-27T13:16:05;23.52;;;9.75;;
56297;SDS011;42208;6.376;-10.782;2022-11-27T13:21:26;22.10;;;10.68;;
56297;SDS011;42208;6.376;-10.782;2022-11-27T13:24:01;23.58;;;9.77;;
56297;SDS011;42208;6.376;-10.782;2022-11-27T13:29:12;23.40;;;10.00;;
56297;SDS011;42208;6.376;-10.782;2022-11-27T13:32:03;21.15;;;9.77;;
56297;SDS011;42208;6.376;-10.782;2022-11-27T13:34:33;32.38;;;10.32;;
56297;SDS011;42208;6.376;-10.782;2022-11-27T13:37:17;30.70;;;9.95;;
56297;SDS011;42208;6.376;-10.782;2022-11-27T13:39:57;20.02;;;9.98;;
56297;SDS011;42208;6.376;-10.782;2022-11-27T13:42:34;26.27;;;10.32;;
56297;SDS011;42208;6.376;-10.782;2022-11-27T13:45:16;22.10;;;9.60;;
56297;SDS011;42208;6.376;-10.782;2022-11-27T13:47:50;26.90;;;10.75;;
56297;SDS011;42208;6.376;-10.782;2022-11-27T13:50:20;24.05;;;10.80;;
56297;SDS011;42208;6.376;-10.782;2022-11-27T13:53:01;25.90;;;9.98;;
56297;SDS011;42208;6.376;-10.782;2022-11-27T13:55:33;27.52;;;10.68;;
56297;SDS011;42208;6.376;-10.782;2022-11-27T13:58:05;27.55;;;10.10;;
56297;SDS011;42208;6.376;-10.782;2022-11-27T14:03:23;33.60;;;10.07;;
56297;SDS011;42208;6.376;-10.782;2022-11-27T14:05:56;25.80;;;9.13;;
56297;SDS011;42208;6.376;-10.782;2022-11-27T14:08:32;34.28;;;8.40;;
56297;SDS011;42208;6.376;-10.782;2022-11-27T14:11:05;23.35;;;8.68;;
56297;SDS011;42208;6.376;-10.782;2022-11-27T14:13:38;20.05;;;8.90;;
56297;SDS011;42208;6.376;-10.782;2022-11-27T14:16:23;66.32;;;33.05;;
56297;SDS011;42208;6.376;-10.782;2022-11-27T14:19:02;30.30;;;9.55;;
56297;SDS011;42208;6.376;-10.782;2022-11-27T14:21:38;19.00;;;8.15;;
56297;SDS011;42208;6.376;-10.782;2022-11-27T14:24:32;27.90;;;8.45;;
56297;SDS011;42208;6.376;-10.782;2022-11-27T14:27:13;24.02;;;7.85;;
56297;SDS011;42208;6.376;-10.782;2022-11-27T14:29:47;16.95;;;8.20;;
56297;SDS011;42208;6.376;-10.782;2022-11-27T14:32:16;21.13;;;9.60;;
56297;SDS011;42208;6.376;-10.782;2022-11-27T14:34:46;19.42;;;9.80;;
56297;SDS011;42208;6.376;-10.782;2022-11-27T14:37:19;18.63;;;9.35;;
56297;SDS011;42208;6.376;-10.782;2022-11-27T14:39:48;27.25;;;9.25;;
56297;SDS011;42208;6.376;-10.782;2022-11-27T14:45:05;24.88;;;8.68;;
56297;SDS011;42208;6.376;-10.782;2022-11-27T14:47:44;35.13;;;11.15;;
56297;SDS011;42208;6.376;-10.782;2022-11-27T14:50:15;33.53;;;18.25;;
56297;SDS011;42208;6.376;-10.782;2022-11-27T14:52:48;27.13;;;10.85;;
56297;SDS011;42208;6.376;-10.782;2022-11-27T14:55:20;26.40;;;12.88;;
56297;SDS011;42208;6.376;-10.782;2022-11-27T14:57:49;17.27;;;8.68;;
56297;SDS011;42208;6.376;-10.782;2022-11-27T15:00:22;17.20;;;7.95;;
56297;SDS011;42208;6.376;-10.782;2022-11-27T15:02:52;22.10;;;7.93;;
56297;SDS011;42208;6.376;-10.782;2022-11-27T15:05:25;20.92;;;8.82;;
56297;SDS011;42208;6.376;-10.782;2022-11-27T15:07:56;16.45;;;8.27;;
56297;SDS011;42208;6.376;-10.782;2022-11-27T15:13:02;24.65;;;9.05;;
56297;SDS011;42208;6.376;-10.782;2022-11-27T15:15:40;27.23;;;9.53;;
56297;SDS011;42208;6.376;-10.782;2022-11-27T15:18:17;17.38;;;8.30;;
56297;SDS011;42208;6.376;-10.782;2022-11-27T15:20:48;12.45;;;6.45;;
56297;SDS011;42208;6.376;-10.782;2022-11-27T15:26:12;12.27;;;6.68;;
56297;SDS011;42208;6.376;-10.782;2022-11-27T15:28:50;10.55;;;6.07;;
56297;SDS011;42208;6.376;-10.782;2022-11-27T15:31:21;16.95;;;5.65;;
56297;SDS011;42208;6.376;-10.782;2022-11-27T15:36:48;19.55;;;6.35;;
56297;SDS011;42208;6.376;-10.782;2022-11-27T15:41:59;17.65;;;7.13;;
56297;SDS011;42208;6.376;-10.782;2022-11-27T15:44:29;29.73;;;8.20;;
56297;SDS011;42208;6.376;-10.782;2022-11-27T15:46:59;25.58;;;8.00;;
56297;SDS011;42208;6.376;-10.782;2022-11-27T15:49:29;15.88;;;7.97;;
56297;SDS011;42208;6.376;-10.782;2022-11-27T15:51:57;22.70;;;9.65;;
56297;SDS011;42208;6.376;-10.782;2022-11-27T15:54:25;39.08;;;14.30;;
56297;SDS011;42208;6.376;-10.782;2022-11-27T15:56:54;32.38;;;15.35;;
56297;SDS011;42208;6.376;-10.782;2022-11-27T15:59:23;28.50;;;15.45;;
56297;SDS011;42208;6.376;-10.782;2022-11-27T16:01:52;28.08;;;13.98;;
56297;SDS011;42208;6.376;-10.782;2022-11-27T16:04:20;50.78;;;25.30;;
56297;SDS011;42208;6.376;-10.782;2022-11-27T16:06:48;38.33;;;17.33;;
56297;SDS011;42208;6.376;-10.782;2022-11-27T16:09:17;44.33;;;24.25;;
56297;SDS011;42208;6.376;-10.782;2022-11-27T16:11:45;85.32;;;46.97;;
56297;SDS011;42208;6.376;-10.782;2022-11-27T16:14:14;60.38;;;28.95;;
56297;SDS011;42208;6.376;-10.782;2022-11-27T16:16:42;48.85;;;23.23;;
56297;SDS011;42208;6.376;-10.782;2022-11-27T16:19:10;46.80;;;23.05;;
56297;SDS011;42208;6.376;-10.782;2022-11-27T16:21:39;41.72;;;23.10;;
56297;SDS011;42208;6.376;-10.782;2022-11-27T16:24:10;34.10;;;16.52;;
56297;SDS011;42208;6.376;-10.782;2022-11-27T16:26:40;40.33;;;17.88;;
56297;SDS011;42208;6.376;-10.782;2022-11-27T16:29:09;80.07;;;34.42;;
56297;SDS011;42208;6.376;-10.782;2022-11-27T16:31:37;75.97;;;33.75;;
56297;SDS011;42208;6.376;-10.782;2022-11-27T16:34:06;61.20;;;29.75;;
56297;SDS011;42208;6.376;-10.782;2022-11-27T16:36:39;50.67;;;24.38;;
56297;SDS011;42208;6.376;-10.782;2022-11-27T16:39:09;46.17;;;21.65;;
56297;SDS011;42208;6.376;-10.782;2022-11-27T16:41:38;49.80;;;23.13;;
56297;SDS011;42208;6.376;-10.782;2022-11-27T16:44:11;40.03;;;18.42;;
56297;SDS011;42208;6.376;-10.782;2022-11-27T16:46:41;35.40;;;17.27;;
56297;SDS011;42208;6.376;-10.782;2022-11-27T16:49:10;46.33;;;19.70;;
56297;SDS011;42208;6.376;-10.782;2022-11-27T16:51:39;49.28;;;21.05;;
56297;SDS011;42208;6.376;-10.782;2022-11-27T16:54:10;33.05;;;17.13;;
56297;SDS011;42208;6.376;-10.782;2022-11-27T16:56:41;47.58;;;18.30;;
56297;SDS011;42208;6.376;-10.782;2022-11-27T16:59:11;34.38;;;15.93;;
56297;SDS011;42208;6.376;-10.782;2022-11-27T17:01:41;48.30;;;17.17;;
56297;SDS011;42208;6.376;-10.782;2022-11-27T17:04:14;48.55;;;16.27;;
56297;SDS011;42208;6.376;-10.782;2022-11-27T17:06:45;46.88;;;14.10;;
56297;SDS011;42208;6.376;-10.782;2022-11-27T17:09:15;45.10;;;12.60;;
56297;SDS011;42208;6.376;-10.782;2022-11-27T17:11:44;41.30;;;10.77;;
56297;SDS011;42208;6.376;-10.782;2022-11-27T17:14:14;41.78;;;13.23;;
56297;SDS011;42208;6.376;-10.782;2022-11-27T17:16:43;22.02;;;9.07;;